createdAt,value
2023-05-21T00:00:14.092Z,30.66
2023-05-21T00:03:00.357Z,25.86
2023-05-21T00:05:40.124Z,25.14
2023-05-21T00:08:19.502Z,24.95
2023-05-21T00:10:59.002Z,24.03
2023-05-21T00:13:39.785Z,23.79
2023-05-21T00:16:19.170Z,23.54
2023-05-21T00:19:03.709Z,23.38
2023-05-21T00:21:43.082Z,23.66
2023-05-21T00:24:22.680Z,25.46
2023-05-21T00:27:02.346Z,24.30
2023-05-21T00:29:43.595Z,23.60
2023-05-21T00:32:23.704Z,26.38
2023-05-21T00:35:08.325Z,24.60
2023-05-21T00:37:48.902Z,25.73
2023-05-21T00:40:28.830Z,25.30
2023-05-21T00:43:09.393Z,24.07
2023-05-21T00:45:49.577Z,23.82
2023-05-21T00:48:29.624Z,23.18
2023-05-21T00:51:14.636Z,21.77
2023-05-21T00:53:54.113Z,22.77
2023-05-21T00:56:33.680Z,23.83
2023-05-21T00:59:13.202Z,24.21
2023-05-21T01:01:55.112Z,23.36
2023-05-21T01:04:34.449Z,22.47
2023-05-21T01:07:19.809Z,23.05
2023-05-21T01:10:00.321Z,22.54
2023-05-21T01:12:42.653Z,23.18
2023-05-21T01:15:22.322Z,24.39
2023-05-21T01:18:02.284Z,22.90
2023-05-21T01:20:43.836Z,23.96
2023-05-21T01:23:28.795Z,23.78
2023-05-21T01:26:08.487Z,23.09
2023-05-21T01:28:48.166Z,23.26
2023-05-21T01:31:41.591Z,24.12
2023-05-21T01:34:27.656Z,24.46
2023-05-21T01:37:14.881Z,24.38
2023-05-21T01:40:05.187Z,23.74
2023-05-21T01:42:50.109Z,23.60
2023-05-21T01:45:32.584Z,24.68
2023-05-21T01:48:15.013Z,23.94
2023-05-21T01:50:56.533Z,23.72
2023-05-21T01:53:35.872Z,23.49
2023-05-21T01:56:20.402Z,24.39
2023-05-21T01:59:00.764Z,22.77
2023-05-21T02:01:40.133Z,24.08
2023-05-21T02:04:19.458Z,24.55
2023-05-21T02:06:58.830Z,23.65
2023-05-21T02:09:38.135Z,23.24
2023-05-21T02:12:22.554Z,25.08
2023-05-21T02:15:01.842Z,23.76
2023-05-21T02:17:41.851Z,24.48
2023-05-21T02:20:21.871Z,23.18
2023-05-21T02:23:01.200Z,23.86
2023-05-21T02:25:41.028Z,24.29
2023-05-21T02:28:25.458Z,24.28
2023-05-21T02:31:05.220Z,24.02
2023-05-21T02:33:44.626Z,24.14
2023-05-21T02:36:23.964Z,24.68
2023-05-21T02:39:03.313Z,26.35
2023-05-21T02:41:42.686Z,24.25
2023-05-21T02:44:27.153Z,25.02
2023-05-21T02:47:06.584Z,24.42
2023-05-21T02:49:45.955Z,25.00
2023-05-21T02:52:26.321Z,24.80
2023-05-21T02:55:05.692Z,24.62
2023-05-21T02:57:45.032Z,24.37
2023-05-21T03:00:29.528Z,24.94
2023-05-21T03:03:08.941Z,24.80
2023-05-21T03:05:49.541Z,25.17
2023-05-21T03:08:28.891Z,25.21
2023-05-21T03:11:08.763Z,24.71
2023-05-21T03:13:48.559Z,24.16
2023-05-21T03:16:35.714Z,23.97
2023-05-21T03:19:15.200Z,24.65
2023-05-21T03:21:55.927Z,25.18
2023-05-21T03:24:36.517Z,24.71
2023-05-21T03:27:15.868Z,24.23
2023-05-21T03:29:56.327Z,24.36
2023-05-21T03:32:42.516Z,24.24
2023-05-21T03:35:21.937Z,24.27
2023-05-21T03:38:01.322Z,24.60
2023-05-21T03:40:40.711Z,24.58
2023-05-21T03:43:20.201Z,24.75
2023-05-21T03:45:59.716Z,23.81
2023-05-21T03:48:44.130Z,23.88
2023-05-21T03:51:24.086Z,23.43
2023-05-21T03:54:04.532Z,24.07
2023-05-21T03:56:43.959Z,22.98
2023-05-21T03:59:23.383Z,23.06
2023-05-21T04:02:02.883Z,22.79
2023-05-21T04:04:48.113Z,23.65
2023-05-21T04:07:28.366Z,22.58
2023-05-21T04:10:07.998Z,20.83
2023-05-21T04:12:47.410Z,19.43
2023-05-21T04:15:27.109Z,17.97
2023-05-21T04:18:06.451Z,17.99
2023-05-21T04:20:51.402Z,18.04
2023-05-21T04:23:30.746Z,18.26
2023-05-21T04:26:10.190Z,17.77
2023-05-21T04:28:49.636Z,17.66
2023-05-21T04:31:29.575Z,17.88
2023-05-21T04:34:09.174Z,17.78
2023-05-21T04:36:53.993Z,17.81
2023-05-21T04:39:33.428Z,18.52
2023-05-21T04:42:13.165Z,17.92
2023-05-21T04:44:52.677Z,17.17
2023-05-21T04:47:36.534Z,17.35
2023-05-21T04:50:16.861Z,17.66
2023-05-21T04:53:01.277Z,17.33
2023-05-21T04:55:41.448Z,17.23
2023-05-21T04:58:20.809Z,16.70
2023-05-21T05:01:06.120Z,16.72
2023-05-21T05:03:45.812Z,17.15
2023-05-21T05:06:27.570Z,17.50
2023-05-21T05:09:12.084Z,16.73
2023-05-21T05:11:51.699Z,17.07
2023-05-21T05:14:31.024Z,17.18
2023-05-21T05:17:11.369Z,17.36
2023-05-21T05:19:50.716Z,16.83
2023-05-21T05:22:30.099Z,16.85
2023-05-21T05:25:15.186Z,17.07
2023-05-21T05:27:54.549Z,16.74
2023-05-21T05:30:34.004Z,16.79
2023-05-21T05:33:13.616Z,17.39
2023-05-21T05:35:52.958Z,17.11
2023-05-21T05:38:32.900Z,16.93
2023-05-21T05:41:17.413Z,16.66
2023-05-21T05:43:56.818Z,16.71
2023-05-21T05:46:37.314Z,17.20
2023-05-21T05:49:16.743Z,16.82
2023-05-21T05:51:56.322Z,16.25
2023-05-21T05:54:35.739Z,17.13
2023-05-21T05:57:20.142Z,16.91
2023-05-21T05:59:59.498Z,17.07
2023-05-21T06:02:38.947Z,16.80
2023-05-21T06:05:18.454Z,16.99
2023-05-21T06:07:57.937Z,16.78
2023-05-21T06:10:37.273Z,17.04
2023-05-21T06:13:21.679Z,16.52
2023-05-21T06:16:01.205Z,16.78
2023-05-21T06:18:40.533Z,16.43
2023-05-21T06:21:20.008Z,17.02
2023-05-21T06:23:59.394Z,16.94
2023-05-21T06:26:38.716Z,17.19
2023-05-21T06:29:24.202Z,16.92
2023-05-21T06:32:03.547Z,16.93
2023-05-21T06:34:43.027Z,17.08
2023-05-21T06:37:27.067Z,17.11
2023-05-21T06:40:06.538Z,17.35
2023-05-21T06:42:46.048Z,17.42
2023-05-21T06:45:30.926Z,17.50
2023-05-21T06:48:10.315Z,16.79
2023-05-21T06:50:49.705Z,16.15
2023-05-21T06:53:29.113Z,16.70
2023-05-21T06:56:08.482Z,16.35
2023-05-21T06:58:51.132Z,16.92
2023-05-21T07:01:35.738Z,16.41
2023-05-21T07:04:15.089Z,16.86
2023-05-21T07:06:54.797Z,16.06
2023-05-21T07:09:34.158Z,16.53
2023-05-21T07:12:14.331Z,16.16
2023-05-21T07:14:53.694Z,16.21
2023-05-21T07:17:38.796Z,16.15
2023-05-21T07:20:20.142Z,16.07
2023-05-21T07:22:59.512Z,16.41
2023-05-21T07:25:39.084Z,15.88
2023-05-21T07:28:18.495Z,16.17
2023-05-21T07:30:57.836Z,15.88
2023-05-21T07:33:42.231Z,15.91
2023-05-21T07:36:21.609Z,16.24
2023-05-21T07:39:00.936Z,15.98
2023-05-21T07:41:40.316Z,15.76
2023-05-21T07:44:19.706Z,16.15
2023-05-21T07:46:59.020Z,15.70
2023-05-21T07:49:43.449Z,16.06
2023-05-21T07:52:22.937Z,16.15
2023-05-21T07:55:02.289Z,16.05
2023-05-21T07:57:41.729Z,15.93
2023-05-21T08:00:22.450Z,16.25
2023-05-21T08:03:02.348Z,15.82
2023-05-21T08:05:49.856Z,16.43
2023-05-21T08:08:35.101Z,15.97
2023-05-21T08:11:14.511Z,15.75
2023-05-21T08:13:53.851Z,15.53
2023-05-21T08:16:33.248Z,15.77
2023-05-21T08:19:12.659Z,15.19
2023-05-21T08:21:57.103Z,15.60
2023-05-21T08:24:36.516Z,15.35
2023-05-21T08:27:17.368Z,15.67
2023-05-21T08:29:56.764Z,15.82
2023-05-21T08:32:36.694Z,15.53
2023-05-21T08:35:17.444Z,15.62
2023-05-21T08:38:01.925Z,15.60
2023-05-21T08:40:42.715Z,15.88
2023-05-21T08:43:23.489Z,15.46
2023-05-21T08:46:05.184Z,15.65
2023-05-21T08:48:45.303Z,15.58
2023-05-21T08:51:24.794Z,15.56
2023-05-21T08:54:12.197Z,15.92
2023-05-21T08:56:52.459Z,16.05
2023-05-21T08:59:33.636Z,15.52
2023-05-21T09:02:13.848Z,15.31
2023-05-21T09:04:58.239Z,15.65
2023-05-21T09:07:41.863Z,15.49
2023-05-21T09:10:32.794Z,14.73
2023-05-21T09:13:12.499Z,14.86
2023-05-21T09:15:52.745Z,14.63
2023-05-21T09:18:32.706Z,14.59
2023-05-21T09:21:31.332Z,14.72
2023-05-21T09:24:11.836Z,14.02
2023-05-21T09:26:56.326Z,14.41
2023-05-21T09:29:35.798Z,14.17
2023-05-21T09:32:16.407Z,14.59
2023-05-21T09:34:55.734Z,13.79
2023-05-21T09:37:38.862Z,14.17
2023-05-21T09:40:20.445Z,13.96
2023-05-21T09:43:04.896Z,13.36
2023-05-21T09:45:44.444Z,13.69
2023-05-21T09:48:23.823Z,13.85
2023-05-21T09:51:15.408Z,13.13
2023-05-21T09:53:59.016Z,14.09
2023-05-21T09:56:38.369Z,13.66
2023-05-21T09:59:22.870Z,13.76
2023-05-21T10:02:02.399Z,13.50
2023-05-21T10:04:42.343Z,13.40
2023-05-21T10:07:27.046Z,13.33
2023-05-21T10:10:10.889Z,13.65
2023-05-21T10:12:53.342Z,13.68
2023-05-21T10:15:46.470Z,13.64
2023-05-21T10:18:29.605Z,13.32
2023-05-21T10:21:10.466Z,13.92
2023-05-21T10:23:51.982Z,13.02
2023-05-21T10:26:32.547Z,13.95
2023-05-21T10:29:12.531Z,13.50
2023-05-21T10:31:59.787Z,13.10
2023-05-21T10:34:39.362Z,13.38
2023-05-21T10:37:20.804Z,13.32
2023-05-21T10:40:00.521Z,13.73
2023-05-21T10:43:29.271Z,13.39
2023-05-21T10:46:38.946Z,13.33
2023-05-21T10:49:45.964Z,13.10
2023-05-21T10:52:43.007Z,12.64
2023-05-21T10:55:41.782Z,12.28
2023-05-21T10:58:55.610Z,12.69
2023-05-21T11:01:37.267Z,13.39
2023-05-21T11:04:18.727Z,13.27
2023-05-21T11:07:05.546Z,13.59
2023-05-21T11:09:45.556Z,13.17
2023-05-21T11:12:24.899Z,12.82
2023-05-21T11:15:05.547Z,12.25
2023-05-21T11:17:49.364Z,12.56
2023-05-21T11:20:29.183Z,12.10
2023-05-21T11:23:13.589Z,12.42
2023-05-21T11:26:08.107Z,12.72
2023-05-21T11:28:48.071Z,12.60
2023-05-21T11:31:35.537Z,12.85
2023-05-21T11:34:20.913Z,12.29
2023-05-21T11:37:36.564Z,12.18
2023-05-21T11:40:34.892Z,12.33
2023-05-21T11:43:14.376Z,11.99
2023-05-21T11:45:54.588Z,12.15
2023-05-21T11:48:34.924Z,12.01
2023-05-21T11:51:15.327Z,11.67
2023-05-21T11:53:54.780Z,11.74
2023-05-21T11:56:43.049Z,11.56
2023-05-21T11:59:22.817Z,12.08
2023-05-21T12:02:03.197Z,11.87
2023-05-21T12:04:43.926Z,11.75
2023-05-21T12:07:25.429Z,12.18
2023-05-21T12:10:05.226Z,11.93
2023-05-21T12:12:55.560Z,12.34
2023-05-21T12:15:35.665Z,11.51
2023-05-21T12:18:15.071Z,11.35
2023-05-21T12:20:54.602Z,11.94
2023-05-21T12:23:34.074Z,11.78
2023-05-21T12:26:13.742Z,12.03
2023-05-21T12:28:59.100Z,12.14
2023-05-21T12:31:38.546Z,11.80
2023-05-21T12:34:19.978Z,11.23
2023-05-21T12:36:59.342Z,11.44
2023-05-21T12:39:39.042Z,11.01
2023-05-21T12:42:18.687Z,10.50
2023-05-21T12:45:03.953Z,11.10
2023-05-21T12:47:44.378Z,11.68
2023-05-21T12:50:28.923Z,12.02
2023-05-21T12:53:08.337Z,11.83
2023-05-21T12:55:47.761Z,11.66
2023-05-21T12:58:30.466Z,11.65
2023-05-21T13:01:15.439Z,12.02
2023-05-21T13:03:55.250Z,11.56
2023-05-21T13:06:35.561Z,11.78
2023-05-21T13:09:14.869Z,11.09
2023-05-21T13:11:54.210Z,11.20
2023-05-21T13:14:33.543Z,11.06
2023-05-21T13:17:18.498Z,11.13
2023-05-21T13:20:13.597Z,10.40
2023-05-21T13:22:55.238Z,11.41
2023-05-21T13:25:35.090Z,11.50
2023-05-21T13:28:16.560Z,11.06
2023-05-21T13:30:57.178Z,10.73
2023-05-21T13:33:41.659Z,10.22
2023-05-21T13:36:21.148Z,10.30
2023-05-21T13:39:00.461Z,10.49
2023-05-21T13:41:40.020Z,10.51
2023-05-21T13:44:19.373Z,10.30
2023-05-21T13:46:58.908Z,10.66
2023-05-21T13:49:44.116Z,10.87
2023-05-21T13:52:23.476Z,10.99
2023-05-21T13:55:02.900Z,10.44
2023-05-21T13:57:42.373Z,10.85
2023-05-21T14:00:22.628Z,10.50
2023-05-21T14:03:02.319Z,11.10
2023-05-21T14:05:46.811Z,10.76
2023-05-21T14:08:27.225Z,11.10
2023-05-21T14:11:06.578Z,11.04
2023-05-21T14:13:45.901Z,11.06
2023-05-21T14:16:26.490Z,10.89
2023-05-21T14:19:05.954Z,10.77
2023-05-21T14:21:50.769Z,10.85
2023-05-21T14:24:30.115Z,10.61
2023-05-21T14:27:09.442Z,10.70
2023-05-21T14:29:48.890Z,10.83
2023-05-21T14:32:28.289Z,10.91
2023-05-21T14:35:07.728Z,10.57
2023-05-21T14:37:52.189Z,10.67
2023-05-21T14:40:31.635Z,10.84
2023-05-21T14:43:10.986Z,10.47
2023-05-21T14:45:50.405Z,10.16
2023-05-21T14:48:29.773Z,10.39
2023-05-21T14:51:09.815Z,10.17
2023-05-21T14:53:54.239Z,9.71
2023-05-21T14:56:34.326Z,10.05
2023-05-21T14:59:14.120Z,9.58
2023-05-21T15:01:53.732Z,10.28
2023-05-21T15:04:33.113Z,9.61
2023-05-21T15:07:12.489Z,10.08
2023-05-21T15:09:57.130Z,10.30
2023-05-21T15:12:37.201Z,9.55
2023-05-21T15:15:18.683Z,9.80
2023-05-21T15:17:58.942Z,10.72
2023-05-21T15:20:38.353Z,10.17
2023-05-21T15:23:18.122Z,9.97
2023-05-21T15:26:02.755Z,10.90
2023-05-21T15:28:42.183Z,9.88
2023-05-21T15:31:21.577Z,9.52
2023-05-21T15:34:00.977Z,10.87
2023-05-21T15:36:40.301Z,9.43
2023-05-21T15:39:19.650Z,9.58
2023-05-21T15:42:04.028Z,10.03
2023-05-21T15:44:43.379Z,10.24
2023-05-21T15:47:22.838Z,10.00
2023-05-21T15:50:02.472Z,9.78
2023-05-21T15:52:41.851Z,10.03
2023-05-21T15:55:21.224Z,10.09
2023-05-21T15:58:05.647Z,9.74
2023-05-21T16:00:45.037Z,10.34
2023-05-21T16:03:24.663Z,9.74
2023-05-21T16:06:05.534Z,10.15
2023-05-21T16:08:45.023Z,10.44
2023-05-21T16:11:24.560Z,10.13
2023-05-21T16:14:08.940Z,10.32
2023-05-21T16:16:48.337Z,10.68
2023-05-21T16:19:27.795Z,10.53
2023-05-21T16:22:09.337Z,10.16
2023-05-21T16:24:50.014Z,10.45
2023-05-21T16:27:29.377Z,10.42
2023-05-21T16:30:15.116Z,9.97
2023-05-21T16:32:54.485Z,10.98
2023-05-21T16:35:34.329Z,10.59
2023-05-21T16:38:13.880Z,10.68
2023-05-21T16:40:53.252Z,10.83
2023-05-21T16:43:32.623Z,10.72
2023-05-21T16:46:17.200Z,10.57
2023-05-21T16:48:56.591Z,10.72
2023-05-21T16:51:36.041Z,10.89
2023-05-21T16:54:15.380Z,10.56
2023-05-21T16:56:55.808Z,11.08
2023-05-21T16:59:35.176Z,10.57
2023-05-21T17:02:20.291Z,10.78
2023-05-21T17:04:59.662Z,10.80
2023-05-21T17:07:39.740Z,11.01
2023-05-21T17:10:19.369Z,11.18
2023-05-21T17:13:01.895Z,10.86
2023-05-21T17:15:46.173Z,11.00
2023-05-21T17:18:30.756Z,10.59
2023-05-21T17:21:10.142Z,11.00
2023-05-21T17:23:49.552Z,11.06
2023-05-21T17:26:28.890Z,10.94
2023-05-21T17:29:08.284Z,10.96
2023-05-21T17:31:47.809Z,11.25
2023-05-21T17:34:32.422Z,10.69
2023-05-21T17:37:12.156Z,10.99
2023-05-21T17:39:51.595Z,10.99
2023-05-21T17:42:31.018Z,11.37
2023-05-21T17:45:10.517Z,11.56
2023-05-21T17:47:49.843Z,11.24
2023-05-21T17:50:35.474Z,11.42
2023-05-21T17:53:14.829Z,11.97
2023-05-21T17:55:54.499Z,11.87
2023-05-21T17:58:33.878Z,11.38
2023-05-21T18:01:13.394Z,11.56
2023-05-21T18:03:53.172Z,11.28
2023-05-21T18:06:37.890Z,11.64
2023-05-21T18:09:17.221Z,11.66
2023-05-21T18:11:57.910Z,11.68
2023-05-21T18:14:37.639Z,11.96
2023-05-21T18:17:17.000Z,12.02
2023-05-21T18:19:56.367Z,12.03
2023-05-21T18:22:40.738Z,12.27
2023-05-21T18:25:20.100Z,11.93
2023-05-21T18:28:00.863Z,12.19
2023-05-21T18:30:40.233Z,12.16
2023-05-21T18:33:19.559Z,12.08
2023-05-21T18:35:58.960Z,12.71
2023-05-21T18:38:43.377Z,12.96
2023-05-21T18:41:23.620Z,12.90
2023-05-21T18:44:03.017Z,12.99
2023-05-21T18:46:42.540Z,13.20
2023-05-21T18:49:22.562Z,13.26
2023-05-21T18:52:01.967Z,13.91
2023-05-21T18:54:46.455Z,14.27
2023-05-21T18:57:25.795Z,14.16
2023-05-21T19:00:05.154Z,13.69
2023-05-21T19:02:44.869Z,14.63
2023-05-21T19:05:24.451Z,14.37
2023-05-21T19:08:04.532Z,14.26
2023-05-21T19:10:48.938Z,14.22
2023-05-21T19:13:28.468Z,14.33
2023-05-21T19:16:12.045Z,14.68
2023-05-21T19:18:51.374Z,13.90
2023-05-21T19:21:31.227Z,14.39
2023-05-21T19:24:10.826Z,14.76
2023-05-21T19:26:55.239Z,14.18
2023-05-21T19:29:34.765Z,14.37
2023-05-21T19:32:15.121Z,14.19
2023-05-21T19:34:54.648Z,14.35
2023-05-21T19:37:34.053Z,14.30
2023-05-21T19:40:15.166Z,14.44
2023-05-21T19:42:59.562Z,14.79
2023-05-21T19:45:38.911Z,14.46
2023-05-21T19:48:18.297Z,13.72
2023-05-21T19:50:57.613Z,14.55
2023-05-21T19:53:37.408Z,14.22
2023-05-21T19:56:16.782Z,14.60
2023-05-21T19:59:01.273Z,14.58
2023-05-21T20:01:41.358Z,14.25
2023-05-21T20:04:21.349Z,14.57
2023-05-21T20:07:00.712Z,14.42
2023-05-21T20:09:40.086Z,14.05
2023-05-21T20:12:19.426Z,14.99
2023-05-21T20:15:03.856Z,15.81
2023-05-21T20:17:45.331Z,15.39
2023-05-21T20:20:24.727Z,14.72
2023-05-21T20:23:04.459Z,14.61
2023-05-21T20:25:43.833Z,14.88
2023-05-21T20:28:23.906Z,15.34
2023-05-21T20:31:08.868Z,14.77
2023-05-21T20:33:51.562Z,15.75
2023-05-21T20:36:34.990Z,15.50
2023-05-21T20:39:14.350Z,16.15
2023-05-21T20:41:53.738Z,15.69
2023-05-21T20:44:35.220Z,15.79
2023-05-21T20:47:21.460Z,15.93
2023-05-21T20:50:00.798Z,15.75
2023-05-21T20:52:40.227Z,16.59
2023-05-21T20:55:19.592Z,16.11
2023-05-21T20:57:58.928Z,15.71
2023-05-21T21:00:39.832Z,16.86
2023-05-21T21:03:24.526Z,16.59
2023-05-21T21:06:04.370Z,16.38
2023-05-21T21:08:47.336Z,16.55
2023-05-21T21:11:27.844Z,16.82
2023-05-21T21:14:07.197Z,16.99
2023-05-21T21:16:46.536Z,17.03
2023-05-21T21:19:31.130Z,16.66
2023-05-21T21:22:10.645Z,16.71
2023-05-21T21:24:49.986Z,16.43
2023-05-21T21:27:29.331Z,16.25
2023-05-21T21:30:08.719Z,15.96
2023-05-21T21:32:48.778Z,16.05
2023-05-21T21:35:33.227Z,16.48
2023-05-21T21:38:12.627Z,16.09
2023-05-21T21:40:52.081Z,16.86
2023-05-21T21:43:31.463Z,16.72
2023-05-21T21:46:10.807Z,17.20
2023-05-21T21:48:50.178Z,16.94
2023-05-21T21:51:34.625Z,16.75
2023-05-21T21:54:13.997Z,16.83
2023-05-21T21:56:53.307Z,16.50
2023-05-21T21:59:32.673Z,16.13
2023-05-21T22:02:12.437Z,16.79
2023-05-21T22:04:52.006Z,17.09
2023-05-21T22:07:36.428Z,16.85
2023-05-21T22:10:17.166Z,17.27
2023-05-21T22:12:56.828Z,17.34
2023-05-21T22:15:36.330Z,17.02
2023-05-21T22:18:31.885Z,16.93
2023-05-21T22:21:19.598Z,16.51
2023-05-21T22:24:04.013Z,16.37
2023-05-21T22:26:43.377Z,17.11
2023-05-21T22:29:22.797Z,16.78
2023-05-21T22:32:02.413Z,17.12
2023-05-21T22:34:43.123Z,17.10
2023-05-21T22:37:22.451Z,17.22
2023-05-21T22:40:07.526Z,17.80
2023-05-21T22:42:47.076Z,17.00
2023-05-21T22:45:27.644Z,17.27
2023-05-21T22:48:08.553Z,17.59
2023-05-21T22:50:47.895Z,17.41
2023-05-21T22:53:27.338Z,17.55
2023-05-21T22:56:12.587Z,17.99
2023-05-21T22:58:52.481Z,17.49
2023-05-21T23:01:33.073Z,17.95
2023-05-21T23:04:12.796Z,17.78
2023-05-21T23:06:52.145Z,17.90
2023-05-21T23:09:31.544Z,17.81
2023-05-21T23:12:17.866Z,17.99
2023-05-21T23:14:57.235Z,18.23
2023-05-21T23:17:36.594Z,18.09
2023-05-21T23:20:17.130Z,18.34
2023-05-21T23:22:56.467Z,18.28
2023-05-21T23:25:35.793Z,18.13
2023-05-21T23:28:20.214Z,17.97
2023-05-21T23:31:00.030Z,17.98
2023-05-21T23:33:39.397Z,18.38
2023-05-21T23:36:18.799Z,18.08
2023-05-21T23:38:58.182Z,18.18
2023-05-21T23:41:37.558Z,18.23
2023-05-21T23:44:22.285Z,18.30
2023-05-21T23:47:01.612Z,18.50
2023-05-21T23:49:41.009Z,18.83
2023-05-21T23:52:20.702Z,18.58
2023-05-21T23:55:00.313Z,18.11
2023-05-21T23:57:39.666Z,18.96
